地図

経路データ

SID SEASON NUMBER BASIN SUBBASIN NAME ISO_TIME NATURE LAT LON WMO_WIND WMO_PRES WMO_AGENCY TRACK_TYPE DIST2LAND LANDFALL IFLAG USA_AGENCY USA_ATCF_ID USA_LAT USA_LON USA_RECORD USA_STATUS USA_WIND USA_PRES USA_SSHS USA_R34_NE USA_R34_SE USA_R34_SW USA_R34_NW USA_R50_NE USA_R50_SE USA_R50_SW USA_R50_NW USA_R64_NE USA_R64_SE USA_R64_SW USA_R64_NW USA_POCI USA_ROCI USA_RMW USA_EYE TOKYO_LAT TOKYO_LON TOKYO_GRADE TOKYO_WIND TOKYO_PRES TOKYO_R50_DIR TOKYO_R50_LONG TOKYO_R50_SHORT TOKYO_R30_DIR TOKYO_R30_LONG TOKYO_R30_SHORT TOKYO_LAND CMA_LAT CMA_LON CMA_CAT CMA_WIND CMA_PRES HKO_LAT HKO_LON HKO_CAT HKO_WIND HKO_PRES NEWDELHI_LAT NEWDELHI_LON NEWDELHI_GRADE NEWDELHI_WIND NEWDELHI_PRES NEWDELHI_CI NEWDELHI_DP NEWDELHI_POCI REUNION_LAT REUNION_LON REUNION_TYPE REUNION_WIND REUNION_PRES REUNION_TNUM REUNION_CI REUNION_RMW REUNION_R34_NE REUNION_R34_SE REUNION_R34_SW REUNION_R34_NW REUNION_R50_NE REUNION_R50_SE REUNION_R50_SW REUNION_R50_NW REUNION_R64_NE REUNION_R64_SE REUNION_R64_SW REUNION_R64_NW BOM_LAT BOM_LON BOM_TYPE BOM_WIND BOM_PRES BOM_TNUM BOM_CI BOM_RMW BOM_R34_NE BOM_R34_SE BOM_R34_SW BOM_R34_NW BOM_R50_NE BOM_R50_SE BOM_R50_SW BOM_R50_NW BOM_R64_NE BOM_R64_SE BOM_R64_SW BOM_R64_NW BOM_ROCI BOM_POCI BOM_EYE BOM_POS_METHOD BOM_PRES_METHOD NADI_LAT NADI_LON NADI_CAT NADI_WIND NADI_PRES WELLINGTON_LAT WELLINGTON_LON WELLINGTON_WIND WELLINGTON_PRES DS824_LAT DS824_LON DS824_STAGE DS824_WIND DS824_PRES TD9636_LAT TD9636_LON TD9636_STAGE TD9636_WIND TD9636_PRES TD9635_LAT TD9635_LON TD9635_WIND TD9635_PRES TD9635_ROCI NEUMANN_LAT NEUMANN_LON NEUMANN_CLASS NEUMANN_WIND NEUMANN_PRES MLC_LAT MLC_LON MLC_CLASS MLC_WIND MLC_PRES USA_GUST BOM_GUST BOM_GUST_PER REUNION_GUST REUNION_GUST_PER USA_SEAHGT USA_SEARAD_NE USA_SEARAD_SE USA_SEARAD_SW USA_SEARAD_NW STORM_SPEED STORM_DIR
1913007S25144 1913 3 SP EA NOT_NAMED 1913-01-06 23:00:00 NR -24.6000 144.000 1000 bom main 0 0 ______O_______ -1 -24.6000 144.000 1000 4 17 78
1913007S25144 1913 3 SP EA NOT_NAMED 1913-01-07 00:00:00 TS -24.5419 144.300 main 0 0 ______P__O____ -1 -24.5628 144.299 -24.5000 144.300 TC 30 1000 17 80
1913007S25144 1913 3 SP EA NOT_NAMED 1913-01-07 03:00:00 TS -24.4098 145.224 main 0 0 ______P__P____ -1 -24.4437 145.204 -24.3589 145.253 TC 17 81
1913007S25144 1913 3 SP EA NOT_NAMED 1913-01-07 06:00:00 TS -24.2651 146.165 main 0 0 ______P__P____ -1 -24.3051 146.135 -24.2118 146.204 TC 18 80
1913007S25144 1913 3 SP EA NOT_NAMED 1913-01-07 09:00:00 TS -24.0973 147.133 main 0 0 ______P__P____ -1 -24.1358 147.113 -24.0588 147.154 TC 18 79
1913007S25144 1913 3 SP EA NOT_NAMED 1913-01-07 11:00:00 TS -23.9768 147.792 bom main 0 0 ______O__P____ -1 -24.0000 147.800 -23.9536 147.785 TC 19 78
1913007S25144 1913 3 SP EA NOT_NAMED 1913-01-07 12:00:00 TS -23.9120 148.128 main 0 0 ______P__O____ -1 -23.9239 148.156 -23.9000 148.100 TC 19 74
1913007S25144 1913 3 SP EA NOT_NAMED 1913-01-07 15:00:00 TS -23.6221 149.149 main 0 0 ______P__P____ -1 -23.6604 149.242 -23.5837 149.057 TC 19 72
1913007S25144 1913 3 SP EA NOT_NAMED 1913-01-07 18:00:00 TS -23.3019 150.145 main 0 0 ______P__P____ -1 -23.3424 150.280 -23.2614 150.009 TC 19 70
1913007S25144 1913 3 SP EA NOT_NAMED 1913-01-07 20:00:00 TS -23.0717 150.771 bom main 10 10 ______O__P____ -1 -23.1000 150.900 -23.0434 150.642 TC 19 68
1913007S25144 1913 3 SP EA NOT_NAMED 1913-01-07 21:00:00 TS -22.9533 151.085 main 32 30 ______P__P____ -1 -22.9683 151.180 -22.9334 150.957 TC 18 66
1913007S25144 1913 3 SP EA NOT_NAMED 1913-01-07 23:00:00 TS -22.7039 151.662 bom main 92 92 ______O__P____ -1 -22.7000 151.700 -22.7117 151.586 TC 17 65
1913007S25144 1913 3 SP EA NOT_NAMED 1913-01-08 00:00:00 TS -22.5786 151.936 main 112 112 ______P__O____ -1 -22.5733 151.946 -22.6000 151.900 TC 15 63
1913007S25144 1913 3 SP EA NOT_NAMED 1913-01-08 03:00:00 NR -22.2346 152.638 main 188 188 ______P_______ -1 -22.2346 152.638 TC 14 63
1913007S25144 1913 3 SP EA NOT_NAMED 1913-01-08 06:00:00 NR -21.9518 153.273 main 263 263 ______P_______ -1 -21.9518 153.273 TC 12 65
1913007S25144 1913 3 SP EA NOT_NAMED 1913-01-08 09:00:00 NR -21.7166 153.858 main 331 331 ______P_______ -1 -21.7166 153.858 TC 11 68
1913007S25144 1913 3 SP EA NOT_NAMED 1913-01-08 12:00:00 NR -21.5207 154.403 main 385 385 ______P_______ -1 -21.5207 154.403 11 70
1913007S25144 1913 3 SP EA NOT_NAMED 1913-01-08 15:00:00 NR -21.3556 154.917 main 413 413 ______P_______ -1 -21.3556 154.917 10 72
1913007S25144 1913 3 SP EA NOT_NAMED 1913-01-08 18:00:00 NR -21.2127 155.409 main 456 456 ______P_______ -1 -21.2127 155.409 9 73
1913007S25144 1913 3 SP EA NOT_NAMED 1913-01-08 21:00:00 NR -21.0832 155.886 main 491 491 ______P_______ -1 -21.0832 155.886 9 74
1913007S25144 1913 3 SP EA NOT_NAMED 1913-01-08 23:00:00 NR -21.0000 156.200 bom main 518 ______O_______ -1 -21.0000 156.200 9 74

デジタル台風データ・検索

IBTrACS Databaseについて

本データベースは、米国NOAAが公開する1842年以降の世界の熱帯低気圧のベストトラックデータアーカイブInternational Best Track Archive for Climate Stewardship (IBTrACS)を、ウェブで閲覧しやすい形式に変換したものです。

最終更新日:2021-10-19